Time;durP1;ratioP1;P1;durP2;ratioP2;P2;SDS_P1;SDS_P2;PMS_P1;PMS_P2;Temp;Humidity;BMP_temperature;BMP_pressure;BME280_temperature;BME280_humidity;BME280_pressure;Samples;Min_cycle;Max_cycle;Signal;HPM_P1;HPM_P2
2022/05/25 00:00:22;;;;;;;5.65;2.40;;;;;;;14.35;57.43;101028.30;1699816;82;25541;-59
2022/05/25 00:02:51;;;;;;;6.87;2.30;;;;;;;14.35;57.43;101031.00;1701873;84;25835;-59
2022/05/25 00:05:20;;;;;;;4.65;2.70;;;;;;;14.30;57.09;101036.53;1702415;84;25769;-59
2022/05/25 00:07:47;;;;;;;3.92;2.10;;;;;;;14.27;56.94;101037.70;1701307;82;27485;-59
2022/05/25 00:10:14;;;;;;;5.70;2.25;;;;;;;14.24;56.89;101029.87;1697917;84;26293;-60
2022/05/25 00:12:41;;;;;;;6.87;2.70;;;;;;;14.19;57.06;101036.27;1705308;82;25787;-59
2022/05/25 00:15:12;;;;;;;6.72;2.75;;;;;;;14.14;57.18;101027.73;1713035;82;25743;-60
2022/05/25 00:17:39;;;;;;;8.43;2.42;;;;;;;14.10;57.19;101028.55;1706011;82;25850;-59
2022/05/25 00:20:08;;;;;;;10.28;2.45;;;;;;;14.03;57.43;101027.47;1708274;82;28040;-59
2022/05/25 00:22:49;;;;;;;6.25;2.70;;;;;;;13.98;57.32;101031.98;1729056;82;25678;-60
2022/05/25 00:25:20;;;;;;;7.83;2.37;;;;;;;13.97;57.24;101029.44;1725211;82;25739;-59
2022/05/25 00:27:48;;;;;;;6.47;2.47;;;;;;;13.95;57.42;101024.16;1730564;82;25791;-59
2022/05/25 00:30:17;;;;;;;9.25;2.92;;;;;;;13.92;57.30;101033.95;1732475;82;25764;-59
2022/05/25 00:32:44;;;;;;;8.45;2.75;;;;;;;13.89;57.17;101029.70;1728756;82;27473;-59
2022/05/25 00:35:15;;;;;;;7.95;2.60;;;;;;;13.88;57.17;101035.23;1732273;81;25847;-59
2022/05/25 00:37:43;;;;;;;11.18;2.33;;;;;;;13.87;57.19;101036.23;1724036;82;25830;-59
2022/05/25 00:40:14;;;;;;;10.40;2.50;;;;;;;13.82;57.57;101032.64;1731377;82;25942;-59
2022/05/25 00:42:41;;;;;;;5.90;2.67;;;;;;;13.78;57.21;101035.31;1725567;82;25947;-59
2022/05/25 00:45:11;;;;;;;7.33;2.58;;;;;;;13.72;57.48;101044.87;1726397;82;27488;-60
2022/05/25 00:47:40;;;;;;;8.30;3.00;;;;;;;13.66;57.47;101041.42;1730696;81;25816;-59
2022/05/25 00:50:13;;;;;;;5.00;2.60;;;;;;;13.59;57.63;101047.05;1731421;82;26029;-60
2022/05/25 00:52:46;;;;;;;11.12;2.72;;;;;;;13.55;57.64;101041.09;1702575;82;25846;-60
2022/05/25 00:55:18;;;;;;;7.12;3.27;;;;;;;13.49;57.87;101046.27;1736244;81;27321;-58
2022/05/25 00:57:48;;;;;;;13.32;3.77;;;;;;;13.43;58.11;101043.66;1751189;81;27418;-58
2022/05/25 01:00:23;;;;;;;9.93;2.95;;;;;;;13.38;58.05;101045.91;1729556;81;25763;-59
2022/05/25 01:02:53;;;;;;;28.05;3.98;;;;;;;13.34;58.11;101052.10;1763069;81;25499;-59
2022/05/25 01:05:31;;;;;;;24.95;3.27;;;;;;;13.31;58.36;101056.47;1755171;81;25792;-60
2022/05/25 01:08:12;;;;;;;16.35;3.52;;;;;;;13.29;58.48;101055.25;1762403;81;25738;-60
2022/05/25 01:11:04;;;;;;;14.15;3.12;;;;;;;13.24;59.33;101058.91;1757700;81;27637;-60
2022/05/25 01:14:11;;;;;;;9.30;2.72;;;;;;;13.17;58.98;101059.14;1761523;81;25701;-59
2022/05/25 01:17:00;;;;;;;10.85;2.90;;;;;;;13.12;59.24;101058.23;1760162;81;25777;-60
2022/05/25 01:19:44;;;;;;;14.55;2.55;;;;;;;13.11;59.58;101061.92;1754523;81;26675;-60
2022/05/25 01:22:53;;;;;;;8.45;2.87;;;;;;;13.13;59.78;101063.95;1729144;81;25848;-60
2022/05/25 01:25:54;;;;;;;12.58;2.70;;;;;;;13.14;59.74;101060.77;1752885;81;28176;-60
2022/05/25 01:28:45;;;;;;;6.35;2.75;;;;;;;13.10;59.90;101063.40;1753331;81;25670;-59
2022/05/25 01:31:27;;;;;;;35.30;3.45;;;;;;;13.08;60.12;101061.37;1753391;81;25758;-59
2022/05/25 01:34:11;;;;;;;4.37;2.60;;;;;;;13.05;59.99;101061.64;1753184;81;25836;-59
2022/05/25 01:36:47;;;;;;;;;;;;;;;13.00;60.23;101055.33;1756362;81;25861;-60
2022/05/25 01:39:19;;;;;;;10.43;2.98;;;;;;;12.97;60.15;101052.42;1752826;81;27522;-59
2022/05/25 01:42:03;;;;;;;8.55;3.25;;;;;;;12.94;60.44;101043.25;1735569;81;26599;-59
2022/05/25 01:44:41;;;;;;;5.00;2.33;;;;;;;12.93;60.32;101050.16;1753725;81;25542;-59
2022/05/25 01:47:10;;;;;;;7.00;2.85;;;;;;;12.91;60.33;101049.45;1719088;82;26406;-60
2022/05/25 01:49:51;;;;;;;6.40;2.80;;;;;;;12.88;60.66;101050.59;1747167;80;25763;-59
2022/05/25 01:52:25;;;;;;;11.63;2.90;;;;;;;12.87;60.78;101052.94;1736243;81;27422;-60
2022/05/25 01:54:58;;;;;;;;;;;;;;;12.88;60.64;101055.13;1748627;81;25763;-60
2022/05/25 01:57:30;;;;;;;9.43;2.60;;;;;;;12.87;60.51;101054.77;1758345;80;25693;-59
2022/05/25 01:59:57;;;;;;;7.10;2.62;;;;;;;12.86;60.45;101054.44;1765314;81;26475;-59
2022/05/25 02:05:14;;;;;;;5.50;2.50;;;;;;;12.83;61.77;101065.01;1766496;81;27404;-60
2022/05/25 02:08:18;;;;;;;7.33;2.40;;;;;;;12.74;61.01;101059.12;1765126;81;25784;-60
2022/05/25 02:10:59;;;;;;;9.63;2.65;;;;;;;12.73;61.04;101069.59;1766032;81;25714;-59
2022/05/25 02:13:43;;;;;;;7.05;2.20;;;;;;;12.71;61.27;101060.77;1767577;79;25742;-59
2022/05/25 02:16:33;;;;;;;6.97;2.52;;;;;;;12.71;61.60;101058.91;1759303;81;27424;-59
2022/05/25 02:19:13;;;;;;;6.75;2.40;;;;;;;12.64;61.25;101064.53;1762857;81;27477;-59
2022/05/25 02:21:51;;;;;;;9.10;2.65;;;;;;;12.58;61.44;101070.51;1764312;81;25755;-59
2022/05/25 02:24:32;;;;;;;11.90;2.80;;;;;;;12.56;61.68;101068.45;1762516;81;25721;-60
2022/05/25 02:27:14;;;;;;;5.65;2.30;;;;;;;12.55;61.73;101068.09;1762177;81;25725;-60
2022/05/25 02:29:51;;;;;;;13.70;2.37;;;;;;;12.54;62.04;101072.64;1761385;81;26005;-60
2022/05/25 02:32:53;;;;;;;7.12;2.60;;;;;;;12.55;61.97;101077.53;1760621;81;27480;-59
2022/05/25 02:35:24;;;;;;;5.62;2.10;;;;;;;12.55;62.38;101077.02;1761995;81;25796;-59
2022/05/25 02:37:57;;;;;;;5.55;2.50;;;;;;;12.56;62.32;101076.54;1756753;81;25511;-59
2022/05/25 02:40:23;;;;;;;9.65;2.60;;;;;;;12.57;62.42;101080.95;1762384;81;25949;-59
2022/05/25 02:42:50;;;;;;;9.90;2.17;;;;;;;12.53;62.18;101089.83;1754440;81;25847;-59
2022/05/25 02:45:17;;;;;;;6.78;2.60;;;;;;;12.53;62.35;101097.41;1760326;81;27464;-59
2022/05/25 02:47:45;;;;;;;9.85;2.35;;;;;;;12.56;62.49;101099.48;1735674;82;25777;-59
2022/05/25 02:50:12;;;;;;;11.85;2.42;;;;;;;12.57;62.42;101103.38;1735628;82;25724;-59
2022/05/25 02:52:39;;;;;;;8.78;1.95;;;;;;;12.60;62.58;101103.58;1734283;82;26148;-60
2022/05/25 02:55:07;;;;;;;5.12;1.80;;;;;;;12.64;62.45;101099.11;1730548;82;25781;-59
2022/05/25 02:57:34;;;;;;;7.03;1.80;;;;;;;12.64;62.89;101102.32;1706141;83;27474;-59
2022/05/25 03:00:01;;;;;;;5.85;2.62;;;;;;;12.63;62.82;101104.18;1708053;83;25646;-59
2022/05/25 03:02:28;;;;;;;29.18;2.87;;;;;;;12.64;62.91;101099.11;1706075;83;25770;-60
2022/05/25 03:04:54;;;;;;;11.38;2.00;;;;;;;12.68;62.60;101102.41;1705048;83;25830;-59
2022/05/25 03:07:21;;;;;;;4.20;2.10;;;;;;;12.74;62.88;101098.26;1703085;84;25782;-59
2022/05/25 03:09:48;;;;;;;9.55;1.90;;;;;;;12.74;62.93;101104.53;1705592;84;27550;-59
2022/05/25 03:12:14;;;;;;;18.07;2.35;;;;;;;12.78;62.88;101110.48;1705104;84;25487;-59
2022/05/25 03:14:42;;;;;;;7.35;2.30;;;;;;;12.83;63.30;101110.91;1704533;84;25538;-60
2022/05/25 03:17:14;;;;;;;9.03;2.58;;;;;;;12.85;63.14;101115.67;1704590;84;25928;-59
2022/05/25 03:19:50;;;;;;;8.95;2.45;;;;;;;12.86;63.28;101113.84;1704931;84;26088;-59
2022/05/25 03:22:17;;;;;;;8.25;2.50;;;;;;;12.92;63.40;101114.09;1716430;82;27476;-59
2022/05/25 03:24:45;;;;;;;3.92;2.70;;;;;;;12.96;63.27;101115.53;1725507;82;25812;-59
2022/05/25 03:27:13;;;;;;;12.70;2.87;;;;;;;13.05;63.33;101115.66;1721635;82;25947;-59
2022/05/25 03:29:41;;;;;;;19.48;2.37;;;;;;;13.08;63.22;101119.44;1727306;82;25767;-59
2022/05/25 03:32:10;;;;;;;12.40;3.00;;;;;;;13.11;63.39;101117.30;1736135;82;25765;-59
2022/05/25 03:34:36;;;;;;;5.75;2.95;;;;;;;13.17;63.30;101123.10;1727157;82;28171;-59
2022/05/25 03:37:04;;;;;;;7.45;1.90;;;;;;;13.22;63.15;101119.48;1727210;81;25681;-59
2022/05/25 03:39:31;;;;;;;12.85;2.77;;;;;;;13.26;63.30;101117.70;1724140;82;25785;-59
2022/05/25 03:42:07;;;;;;;16.65;2.85;;;;;;;13.33;63.34;101115.76;1732486;82;26993;-60
2022/05/25 03:44:36;;;;;;;13.45;3.70;;;;;;;13.40;63.29;101120.95;1730085;82;25749;-59
2022/05/25 03:47:04;;;;;;;22.98;3.30;;;;;;;13.47;63.43;101118.02;1718519;79;28390;-59
2022/05/25 03:49:31;;;;;;;16.42;2.72;;;;;;;13.54;63.43;101115.59;1726425;82;25795;-61
2022/05/25 03:51:58;;;;;;;13.18;4.67;;;;;;;13.62;63.50;101117.05;1725083;82;25791;-61
2022/05/25 03:54:25;;;;;;;15.65;2.52;;;;;;;13.71;63.65;101112.11;1727983;83;25953;-61
2022/05/25 03:56:53;;;;;;;65.70;4.72;;;;;;;13.81;63.39;101117.97;1717451;82;25906;-60
2022/05/25 03:59:20;;;;;;;44.98;4.50;;;;;;;13.87;63.29;101126.83;1727042;81;27513;-60
2022/05/25 04:01:47;;;;;;;15.58;2.90;;;;;;;13.92;63.32;101122.68;1727774;82;26226;-61
2022/05/25 04:04:14;;;;;;;15.05;2.70;;;;;;;13.96;63.28;101124.58;1715655;82;25733;-61
2022/05/25 04:06:40;;;;;;;7.97;2.55;;;;;;;14.04;63.44;101125.20;1721059;82;26689;-60
2022/05/25 04:09:09;;;;;;;6.75;2.65;;;;;;;14.10;63.42;101128.64;1727978;83;27308;-61
2022/05/25 04:11:37;;;;;;;9.18;2.85;;;;;;;14.14;63.25;101130.55;1721829;82;27473;-61
2022/05/25 04:14:04;;;;;;;16.67;2.65;;;;;;;14.19;63.12;101129.09;1712418;82;25748;-60
2022/05/25 04:16:31;;;;;;;23.30;3.17;;;;;;;14.24;62.95;101131.34;1723763;82;25709;-58
2022/05/25 04:18:59;;;;;;;26.02;10.25;;;;;;;14.29;62.76;101125.48;1714177;83;25910;-59
2022/05/25 04:21:26;;;;;;;21.73;3.83;;;;;;;14.32;62.64;101130.08;1725095;82;25730;-58
2022/05/25 04:23:53;;;;;;;18.85;3.20;;;;;;;14.36;62.75;101130.62;1738809;82;27562;-59
2022/05/25 04:26:20;;;;;;;9.35;2.15;;;;;;;14.38;62.67;101136.74;1739825;82;25517;-59
2022/05/25 04:28:47;;;;;;;18.75;3.20;;;;;;;14.42;62.42;101135.94;1730908;82;25532;-59
2022/05/25 04:31:14;;;;;;;14.68;2.10;;;;;;;14.46;62.22;101138.19;1734864;82;25755;-59
2022/05/25 04:33:40;;;;;;;6.80;1.95;;;;;;;14.51;62.11;101143.14;1743879;81;25834;-59
2022/05/25 04:36:07;;;;;;;23.55;2.42;;;;;;;14.56;62.12;101144.39;1741037;81;27470;-59
2022/05/25 04:38:34;;;;;;;15.90;3.30;;;;;;;14.60;62.02;101142.22;1734456;82;25875;-59
2022/05/25 04:41:03;;;;;;;20.97;3.08;;;;;;;14.65;61.86;101140.41;1739127;81;25708;-59
2022/05/25 04:43:30;;;;;;;12.18;2.25;;;;;;;14.68;61.94;101140.98;1731045;82;25835;-59
2022/05/25 04:45:59;;;;;;;21.65;2.72;;;;;;;14.74;61.62;101137.33;1723539;82;25976;-59
2022/05/25 04:48:26;;;;;;;47.15;3.20;;;;;;;14.80;61.67;101139.41;1705291;83;27012;-60
2022/05/25 04:50:59;;;;;;;17.00;2.33;;;;;;;14.88;61.66;101146.77;1710468;83;25915;-59
2022/05/25 04:53:26;;;;;;;31.55;5.47;;;;;;;14.91;61.73;101136.47;1697584;83;25855;-59
2022/05/25 04:58:46;;;;;;;9.43;2.47;;;;;;;15.03;61.33;101146.55;1750515;81;26128;-59
2022/05/25 05:01:17;;;;;;;25.23;8.78;;;;;;;15.09;61.45;101145.91;1754490;81;27461;-59
2022/05/25 05:03:44;;;;;;;24.55;2.80;;;;;;;15.15;61.39;101145.28;1754760;81;25695;-58
2022/05/25 05:06:12;;;;;;;10.72;1.85;;;;;;;15.23;61.38;101148.56;1761902;81;26169;-59
2022/05/25 05:08:39;;;;;;;24.90;1.90;;;;;;;15.31;61.54;101149.98;1766514;81;26490;-58
2022/05/25 05:11:17;;;;;;;6.45;1.90;;;;;;;15.41;61.26;101153.09;1766562;81;25763;-58
2022/05/25 05:13:44;;;;;;;16.17;2.17;;;;;;;15.47;61.15;101156.03;1766164;81;27516;-59
2022/05/25 05:16:15;;;;;;;12.85;2.42;;;;;;;15.58;61.34;101151.36;1766337;81;25836;-59
2022/05/25 05:18:43;;;;;;;9.48;2.47;;;;;;;15.64;60.96;101156.97;1766173;81;26421;-59
2022/05/25 05:21:14;;;;;;;12.00;1.80;;;;;;;15.72;60.76;101153.98;1764552;81;26671;-59
2022/05/25 05:23:43;;;;;;;13.58;2.22;;;;;;;15.80;60.66;101150.80;1759593;80;25813;-59
2022/05/25 05:26:11;;;;;;;49.80;5.08;;;;;;;15.89;60.56;101150.88;1741310;81;28401;-59
2022/05/25 05:28:41;;;;;;;4.28;1.72;;;;;;;15.98;60.34;101153.13;1744355;81;25632;-59
2022/05/25 05:31:10;;;;;;;24.23;1.65;;;;;;;16.06;60.08;101152.64;1738894;81;25768;-59
2022/05/25 05:33:37;;;;;;;7.10;2.20;;;;;;;16.15;59.78;101156.25;1743059;80;25751;-60
2022/05/25 05:36:15;;;;;;;4.62;1.87;;;;;;;16.22;59.36;101153.22;1748354;81;26703;-59
2022/05/25 05:38:56;;;;;;;11.95;1.77;;;;;;;16.30;59.22;101156.48;1722087;81;27562;-59
2022/05/25 05:41:28;;;;;;;16.70;2.17;;;;;;;16.39;59.19;101160.06;1736295;81;26102;-60
2022/05/25 05:43:54;;;;;;;11.00;2.10;;;;;;;16.47;58.80;101153.81;1735558;82;25799;-59
2022/05/25 05:46:23;;;;;;;6.30;2.10;;;;;;;16.52;58.59;101152.30;1730866;82;25805;-59
2022/05/25 05:48:50;;;;;;;14.58;2.60;;;;;;;16.59;58.69;101148.39;1731600;82;25955;-59
2022/05/25 05:51:19;;;;;;;10.13;2.33;;;;;;;16.65;58.71;101155.89;1717740;82;28100;-61
2022/05/25 05:53:46;;;;;;;23.42;2.20;;;;;;;16.71;58.44;101145.70;1675591;83;27386;-60
2022/05/25 05:56:14;;;;;;;36.05;2.85;;;;;;;16.82;58.46;101149.13;1745209;81;25686;-60
2022/05/25 05:58:41;;;;;;;19.17;2.87;;;;;;;16.88;58.33;101153.88;1757790;79;25764;-60
2022/05/25 06:01:08;;;;;;;16.07;3.25;;;;;;;16.96;57.96;101149.83;1738910;81;27294;-61
2022/05/25 06:03:34;;;;;;;15.20;2.55;;;;;;;17.05;57.78;101147.45;1733998;81;27488;-60
2022/05/25 06:06:02;;;;;;;15.93;2.00;;;;;;;17.19;57.73;101153.25;1732982;82;25767;-60
2022/05/25 06:08:30;;;;;;;19.70;2.67;;;;;;;17.32;57.53;101149.48;1728496;82;25714;-60
2022/05/25 06:10:58;;;;;;;19.52;2.55;;;;;;;17.46;56.94;101142.50;1729943;81;25703;-60
2022/05/25 06:13:24;;;;;;;3.87;1.98;;;;;;;17.63;56.46;101147.90;1750053;81;25452;-61
2022/05/25 06:21:26;;;;;;;23.40;2.20;;;;;;;18.21;52.82;101150.47;1707024;81;25747;-59
2022/05/25 06:23:54;;;;;;;8.95;1.40;;;;;;;18.38;52.06;101149.35;1735695;81;25830;-60
2022/05/25 06:26:21;;;;;;;15.83;1.70;;;;;;;18.55;50.76;101161.52;1729355;82;25771;-60
2022/05/25 06:28:47;;;;;;;6.20;1.85;;;;;;;18.70;49.29;101154.25;1735928;82;27485;-60
2022/05/25 06:31:15;;;;;;;3.02;1.15;;;;;;;18.85;48.99;101155.69;1735590;82;25986;-61
2022/05/25 06:33:43;;;;;;;17.00;2.15;;;;;;;18.96;48.38;101150.34;1721368;81;25787;-60
2022/05/25 06:36:25;;;;;;;19.30;2.10;;;;;;;19.05;48.94;101153.34;1706983;83;25815;-60
2022/05/25 06:38:54;;;;;;;7.40;1.55;;;;;;;19.11;48.55;101154.49;1737122;82;26453;-59
2022/05/25 06:41:21;;;;;;;6.00;1.27;;;;;;;19.16;46.97;101161.63;1736572;82;28264;-60
2022/05/25 06:43:49;;;;;;;8.50;1.40;;;;;;;19.22;46.28;101165.50;1731868;82;25756;-60
2022/05/25 06:46:19;;;;;;;7.42;1.55;;;;;;;19.23;46.38;101162.58;1727932;82;25771;-60
2022/05/25 06:48:50;;;;;;;12.93;1.80;;;;;;;19.27;45.97;101162.22;1731963;82;25787;-60
2022/05/25 06:51:30;;;;;;;6.20;1.15;;;;;;;19.31;46.13;101160.31;1728129;82;25514;-60
2022/05/25 06:53:58;;;;;;;20.77;1.50;;;;;;;19.36;45.61;101163.31;1722203;83;27476;-60
2022/05/25 06:56:25;;;;;;;7.03;1.45;;;;;;;19.44;45.79;101166.99;1729060;82;26038;-60
2022/05/25 06:58:54;;;;;;;4.17;1.40;;;;;;;19.48;45.17;101164.23;1733605;82;25725;-60
2022/05/25 07:01:23;;;;;;;4.47;1.30;;;;;;;19.53;45.40;101161.78;1735756;81;26681;-56
2022/05/25 07:03:54;;;;;;;24.47;2.33;;;;;;;19.61;44.79;101161.70;1733644;81;25768;-56
2022/05/25 07:06:23;;;;;;;24.90;1.98;;;;;;;19.68;45.27;101157.19;1732884;82;27682;-56
2022/05/25 07:08:51;;;;;;;2.50;1.00;;;;;;;19.76;44.88;101155.42;1734548;81;25806;-56
2022/05/25 07:11:19;;;;;;;8.85;1.55;;;;;;;19.82;44.85;101145.94;1728140;81;25753;-56
2022/05/25 07:13:47;;;;;;;9.85;1.50;;;;;;;19.92;44.29;101148.94;1762149;81;25888;-56
2022/05/25 07:16:17;;;;;;;3.72;1.40;;;;;;;19.98;44.03;101155.86;1736591;81;25462;-56
2022/05/25 07:18:45;;;;;;;11.10;1.65;;;;;;;20.05;44.07;101153.23;1736716;82;27437;-56
2022/05/25 07:21:22;;;;;;;6.45;1.80;;;;;;;20.13;43.97;101152.26;1735515;82;25833;-56
2022/05/25 07:23:51;;;;;;;9.20;1.60;;;;;;;20.21;43.94;101149.95;1735109;82;25756;-56
2022/05/25 07:26:19;;;;;;;6.35;1.10;;;;;;;20.29;43.60;101152.07;1736236;82;26521;-56
2022/05/25 07:28:46;;;;;;;3.30;1.32;;;;;;;20.39;43.25;101151.75;1732300;81;25523;-56
2022/05/25 07:31:27;;;;;;;3.10;1.27;;;;;;;20.46;43.20;101139.55;1735003;82;27517;-56
2022/05/25 07:34:09;;;;;;;4.92;1.32;;;;;;;20.52;43.03;101144.23;1736251;81;25814;-55
2022/05/25 07:36:37;;;;;;;9.98;1.52;;;;;;;20.61;42.57;101151.80;1730369;82;25790;-56
2022/05/25 07:39:11;;;;;;;5.97;1.22;;;;;;;20.70;42.57;101142.94;1730373;82;25944;-56
2022/05/25 07:41:46;;;;;;;7.10;1.42;;;;;;;20.79;42.47;101141.80;1731427;82;25760;-56
2022/05/25 07:44:33;;;;;;;28.00;2.30;;;;;;;20.91;42.68;101138.02;1734450;81;27397;-56
2022/05/25 07:47:00;;;;;;;4.20;1.67;;;;;;;21.05;41.93;101141.22;1732591;81;26057;-56
2022/05/25 07:49:27;;;;;;;4.28;1.50;;;;;;;21.20;42.07;101134.28;1736803;82;25848;-55
2022/05/25 07:51:55;;;;;;;4.22;1.20;;;;;;;21.30;41.40;101132.58;1733768;82;25734;-56
2022/05/25 07:54:23;;;;;;;3.67;1.12;;;;;;;21.42;40.79;101141.09;1728380;82;25849;-55
2022/05/25 07:56:51;;;;;;;8.70;1.30;;;;;;;21.51;40.78;101130.31;1723383;82;28338;-56
2022/05/25 07:59:19;;;;;;;8.00;1.47;;;;;;;21.63;40.55;101143.48;1726116;82;26017;-56
2022/05/25 08:07:26;;;;;;;4.83;1.47;;;;;;;21.97;38.88;101137.12;1732390;82;25528;-56
2022/05/25 08:10:16;;;;;;;10.95;1.45;;;;;;;22.08;38.89;101126.13;1732385;82;27518;-56
2022/05/25 08:12:45;;;;;;;7.20;1.20;;;;;;;22.16;39.18;101120.48;1733847;82;25825;-55
2022/05/25 08:15:14;;;;;;;9.23;1.42;;;;;;;22.30;39.04;101111.78;1733476;81;25657;-55
2022/05/25 08:17:41;;;;;;;6.53;1.35;;;;;;;22.43;38.27;101122.47;1739237;81;26537;-55
2022/05/25 08:20:11;;;;;;;15.23;1.50;;;;;;;22.56;38.29;101130.75;1743620;81;25774;-56
2022/05/25 08:22:38;;;;;;;13.13;1.62;;;;;;;22.62;37.62;101129.91;1733373;81;27469;-55
2022/05/25 08:25:08;;;;;;;7.00;1.30;;;;;;;22.68;37.97;101128.78;1733976;82;25708;-55
2022/05/25 08:27:42;;;;;;;5.47;1.20;;;;;;;22.76;37.83;101128.03;1741942;81;25919;-56
2022/05/25 08:30:14;;;;;;;;;;;;;;;22.82;37.99;101124.45;1706438;84;25816;-55
2022/05/25 08:32:42;;;;;;;13.28;1.62;;;;;;;22.94;37.67;101119.72;1730951;82;25901;-55
2022/05/25 08:35:09;;;;;;;5.72;1.25;;;;;;;23.01;37.49;101123.30;1720796;82;27596;-56
2022/05/25 08:37:36;;;;;;;9.23;1.07;;;;;;;23.11;37.57;101122.91;1723230;82;26491;-55
2022/05/25 08:40:05;;;;;;;7.60;1.40;;;;;;;23.23;37.00;101121.22;1728815;82;25766;-55
2022/05/25 08:42:37;;;;;;;8.70;1.40;;;;;;;23.36;36.53;101125.86;1733638;82;25833;-55
2022/05/25 08:45:06;;;;;;;3.50;1.05;;;;;;;23.49;36.41;101131.02;1696775;82;25914;-55
2022/05/25 08:47:35;;;;;;;25.32;2.17;;;;;;;23.59;36.37;101116.33;1730193;81;28143;-56
2022/05/25 08:50:03;;;;;;;18.45;1.77;;;;;;;23.75;34.60;101126.84;1736558;82;25803;-55
2022/05/25 08:52:34;;;;;;;9.63;1.95;;;;;;;23.85;34.76;101120.89;1737144;82;25839;-55
2022/05/25 08:55:07;;;;;;;17.77;1.77;;;;;;;24.01;34.22;101125.64;1717799;82;25888;-56
2022/05/25 08:57:42;;;;;;;18.10;1.70;;;;;;;24.15;34.09;101122.31;1734421;82;25726;-56
2022/05/25 09:00:15;;;;;;;3.67;1.67;;;;;;;24.30;33.79;101117.88;1735803;82;27435;-55
2022/05/25 09:03:18;;;;;;;12.68;1.70;;;;;;;24.60;32.38;101107.67;1731976;81;25823;-56
2022/05/25 09:05:50;;;;;;;15.63;1.92;;;;;;;24.60;32.38;101107.67;1729378;82;25807;-56
2022/05/25 09:08:40;;;;;;;6.53;1.57;;;;;;;24.76;32.36;101115.41;1730928;82;25788;-56
2022/05/25 09:11:24;;;;;;;24.75;2.30;;;;;;;24.95;31.92;101114.97;1735446;82;25802;-56
2022/05/25 09:14:02;;;;;;;17.12;2.20;;;;;;;25.15;31.66;101110.67;1738153;82;27098;-55
2022/05/25 09:16:34;;;;;;;13.72;1.72;;;;;;;25.31;31.25;101106.51;1737120;81;25810;-55
2022/05/25 09:19:14;;;;;;;11.45;1.92;;;;;;;25.52;31.12;101112.67;1745622;81;25494;-55
2022/05/25 09:21:55;;;;;;;15.65;1.55;;;;;;;25.75;30.86;101109.23;1739363;81;26619;-55
2022/05/25 09:24:25;;;;;;;8.88;1.45;;;;;;;26.00;30.68;101097.83;1734612;81;25720;-55
2022/05/25 09:26:53;;;;;;;9.28;1.60;;;;;;;26.24;29.65;101096.06;1728542;81;27423;-56
2022/05/25 09:29:23;;;;;;;6.40;1.22;;;;;;;26.43;29.36;101094.64;1730636;82;28096;-56
2022/05/25 09:32:06;;;;;;;9.50;1.30;;;;;;;26.53;29.24;101092.98;1718698;82;25495;-55
2022/05/25 09:34:54;;;;;;;;;;;;;;;26.71;29.33;101092.09;1653189;83;25774;-56
2022/05/25 09:37:54;;;;;;;6.47;1.30;;;;;;;26.92;28.33;101091.79;1704724;83;25923;-55
2022/05/25 09:40:50;;;;;;;5.17;1.65;;;;;;;27.10;27.97;101107.40;1703742;83;27577;-56
2022/05/25 09:43:25;;;;;;;6.67;1.15;;;;;;;27.22;27.36;101070.97;1696788;83;25847;-55
2022/05/25 09:45:55;;;;;;;11.15;1.22;;;;;;;27.43;27.02;101075.07;1704771;84;25757;-56
2022/05/25 09:48:29;;;;;;;4.85;1.10;;;;;;;27.60;27.25;101085.38;1734363;81;26520;-56
2022/05/25 09:51:19;;;;;;;14.85;1.37;;;;;;;27.77;25.80;101091.83;1732514;82;25763;-57
2022/05/25 09:54:02;;;;;;;5.90;1.02;;;;;;;27.94;26.36;101074.47;1733765;82;27481;-56
2022/05/25 09:56:49;;;;;;;15.08;1.25;;;;;;;28.10;25.71;101100.02;1735031;82;32474;-56
2022/05/25 09:59:36;;;;;;;8.50;1.17;;;;;;;28.16;26.01;101065.54;1733541;82;25651;-56
2022/05/25 10:02:27;;;;;;;11.35;1.35;;;;;;;28.51;25.47;101067.28;1734176;82;25815;-56
2022/05/25 10:04:59;;;;;;;6.75;1.25;;;;;;;28.98;25.40;101069.77;1706454;84;25802;-56
2022/05/25 10:07:33;;;;;;;10.05;1.07;;;;;;;29.33;24.70;101067.81;1705569;84;27471;-57
2022/05/25 10:10:04;;;;;;;3.95;0.98;;;;;;;29.64;24.27;101053.82;1705683;84;25989;-56
2022/05/25 10:12:44;;;;;;;10.80;1.55;;;;;;;29.98;23.85;101066.73;1736479;81;25742;-57
2022/05/25 10:15:19;;;;;;;6.10;1.00;;;;;;;30.29;23.51;101062.92;1733032;82;25798;-56
2022/05/25 10:17:48;;;;;;;8.60;1.42;;;;;;;30.51;23.15;101045.34;1758572;81;27315;-56
2022/05/25 10:20:34;;;;;;;7.20;1.15;;;;;;;30.68;22.63;101061.35;1761609;81;27722;-56
2022/05/25 10:23:08;;;;;;;3.00;0.98;;;;;;;30.83;22.87;101050.93;1730966;81;25902;-56
2022/05/25 10:26:03;;;;;;;11.30;1.32;;;;;;;30.79;22.39;101054.50;1736531;82;25573;-56
2022/05/25 10:28:38;;;;;;;10.00;1.25;;;;;;;30.91;22.65;101047.66;1732122;82;25852;-57
2022/05/25 10:37:14;;;;;;;8.38;1.20;;;;;;;31.90;21.75;101032.92;1638545;87;25982;-56
2022/05/25 10:39:58;;;;;;;12.55;1.00;;;;;;;32.19;21.17;101033.82;1686036;82;25744;-56
2022/05/25 10:42:39;;;;;;;3.87;1.00;;;;;;;32.34;20.86;101028.87;1729240;82;25879;-56
2022/05/25 10:45:18;;;;;;;5.80;1.45;;;;;;;32.48;20.89;101038.91;1717151;82;25743;-56
2022/05/25 10:48:13;;;;;;;7.17;0.90;;;;;;;32.59;20.51;101028.02;1719940;81;27490;-56
2022/05/25 10:51:02;;;;;;;1.67;0.70;;;;;;;32.73;20.59;101031.93;1726661;81;25751;-56
2022/05/25 10:57:04;;;;;;;9.35;0.90;;;;;;;32.71;20.40;101028.59;1731922;82;25859;-56
2022/05/25 11:00:00;;;;;;;12.18;1.25;;;;;;;32.99;19.65;101025.53;1727503;82;25772;-56
2022/05/25 11:03:06;;;;;;;3.50;0.93;;;;;;;33.24;19.66;101027.40;1731079;82;28372;-56
2022/05/25 11:05:59;;;;;;;9.05;1.00;;;;;;;33.67;18.91;101030.61;1701165;82;25541;-56
2022/05/25 11:09:21;;;;;;;7.78;1.70;;;;;;;34.01;18.90;101027.67;1699690;83;34632;-56
2022/05/25 11:12:04;;;;;;;8.90;0.95;;;;;;;34.27;18.80;101026.95;1718674;82;44742;-56
2022/05/25 11:15:13;;;;;;;11.12;1.05;;;;;;;34.04;18.53;101020.13;1725832;82;25751;-56
2022/05/25 11:18:13;;;;;;;6.95;1.20;;;;;;;33.98;18.57;101023.51;1713290;82;27498;-56
2022/05/25 11:21:06;;;;;;;8.13;0.90;;;;;;;33.79;18.52;101009.38;1726305;82;25935;-56
2022/05/25 11:24:04;;;;;;;5.35;1.42;;;;;;;33.41;18.95;101007.59;1724565;82;25805;-57
2022/05/25 11:26:46;;;;;;;6.87;1.17;;;;;;;33.25;19.18;100992.84;1715031;82;26087;-55
2022/05/25 11:29:46;;;;;;;3.55;1.10;;;;;;;33.52;19.13;100984.12;1730210;82;25729;-56
2022/05/25 11:32:27;;;;;;;5.95;1.05;;;;;;;33.79;18.76;100992.63;1723795;82;27485;-55
2022/05/25 11:35:32;;;;;;;4.60;0.82;;;;;;;34.01;18.65;101006.73;1727360;82;25810;-56
2022/05/25 11:38:49;;;;;;;5.62;1.37;;;;;;;34.13;18.44;100986.84;1727656;82;25835;-56
2022/05/25 11:41:37;;;;;;;11.93;1.10;;;;;;;34.32;18.48;100990.59;1731930;82;25893;-56
2022/05/25 11:44:34;;;;;;;4.53;0.75;;;;;;;34.81;18.50;100976.78;1727544;82;25781;-57
2022/05/25 11:47:30;;;;;;;4.78;0.80;;;;;;;35.36;17.81;100970.03;1729458;81;27523;-56
2022/05/25 11:50:21;;;;;;;7.00;0.80;;;;;;;36.03;17.31;100963.52;1729918;81;25783;-56
2022/05/25 11:52:56;;;;;;;1.70;0.62;;;;;;;36.53;17.59;100964.97;1659134;86;25950;-56
2022/05/25 11:55:51;;;;;;;9.38;1.02;;;;;;;36.81;16.25;100962.45;1712634;83;26669;-56
2022/05/25 11:58:24;;;;;;;;;;;;;;;36.82;16.18;100959.09;1730744;82;25675;-56
2022/05/25 12:00:57;;;;;;;;;;;;;;;37.12;16.12;100956.27;1715384;81;27534;-56
2022/05/25 12:03:30;;;;;;;;;;;;;;;37.46;15.85;100947.17;1731147;82;25848;-56
2022/05/25 12:06:21;;;;;;;6.85;1.15;;;;;;;37.83;15.66;100941.55;1719872;81;25773;-56
2022/05/25 12:09:07;;;;;;;8.60;1.02;;;;;;;38.21;15.11;100942.61;1731433;81;25741;-56
2022/05/25 12:11:56;;;;;;;11.30;1.10;;;;;;;38.23;14.87;100938.91;1739366;81;25650;-56
2022/05/25 12:14:57;;;;;;;3.30;0.72;;;;;;;38.23;14.66;100944.53;1737410;81;27748;-55
2022/05/25 12:17:38;;;;;;;22.65;1.70;;;;;;;37.81;15.22;100922.23;1749984;81;26702;-56
2022/05/25 12:20:12;;;;;;;15.98;0.90;;;;;;;37.56;15.21;100930.67;1708320;82;25646;-56
2022/05/25 12:22:41;;;;;;;10.43;1.20;;;;;;;37.34;15.37;100916.80;1734562;82;25746;-56
2022/05/25 12:25:11;;;;;;;3.00;0.75;;;;;;;37.48;15.31;100915.98;1730174;82;26001;-56